createdAt,value
2023-02-01T00:00:40.156Z,14.47
2023-02-01T00:03:09.500Z,13.93
2023-02-01T00:05:37.111Z,12.87
2023-02-01T00:08:05.094Z,13.13
2023-02-01T00:10:32.798Z,12.60
2023-02-01T00:13:00.440Z,15.47
2023-02-01T00:15:29.378Z,13.80
2023-02-01T00:17:57.054Z,9.67
2023-02-01T00:20:24.692Z,11.10
2023-02-01T00:22:52.314Z,15.07
2023-02-01T00:25:20.002Z,18.73
2023-02-01T00:27:50.885Z,18.67
2023-02-01T00:30:20.328Z,17.10
2023-02-01T00:32:49.502Z,15.43
2023-02-01T00:35:17.239Z,10.67
2023-02-01T00:37:44.902Z,12.27
2023-02-01T00:40:13.415Z,14.73
2023-02-01T00:42:41.142Z,12.23
2023-02-01T00:45:09.846Z,12.20
2023-02-01T00:47:37.486Z,13.30
2023-02-01T00:50:07.055Z,15.20
2023-02-01T00:52:34.784Z,14.07
2023-02-01T00:55:02.486Z,14.80
2023-02-01T00:57:30.269Z,15.20
2023-02-01T00:59:57.885Z,14.43
2023-02-01T01:02:28.157Z,13.23
2023-02-01T01:04:55.844Z,12.70
2023-02-01T01:07:24.847Z,15.90
2023-02-01T01:09:52.522Z,9.77
2023-02-01T01:12:20.792Z,16.63
2023-02-01T01:14:48.762Z,11.50
2023-02-01T01:17:16.495Z,11.57
2023-02-01T01:19:44.218Z,12.33
2023-02-01T01:22:11.855Z,11.97
2023-02-01T01:24:41.184Z,15.13
2023-02-01T01:27:08.853Z,16.33
2023-02-01T01:29:36.516Z,13.67
2023-02-01T01:32:04.288Z,18.67
2023-02-01T01:34:31.968Z,12.73
2023-02-01T01:36:59.897Z,13.23
2023-02-01T01:39:27.595Z,14.47
2023-02-01T01:41:56.746Z,18.40
2023-02-01T01:44:59.349Z,12.37
2023-02-01T01:47:33.117Z,13.70
2023-02-01T01:50:01.322Z,10.80
2023-02-01T01:52:29.752Z,9.00
2023-02-01T01:54:58.978Z,13.50
2023-02-01T01:57:33.697Z,17.80
2023-02-01T02:00:06.299Z,16.07
2023-02-01T02:02:44.389Z,9.60
2023-02-01T02:05:13.643Z,14.47
2023-02-01T02:07:45.612Z,14.23
2023-02-01T02:10:16.602Z,11.17
2023-02-01T02:12:49.797Z,13.03
2023-02-01T02:15:19.038Z,12.77
2023-02-01T02:17:55.331Z,12.67
2023-02-01T02:20:54.721Z,14.57
2023-02-01T02:24:00.118Z,10.83
2023-02-01T02:26:44.638Z,12.07
2023-02-01T02:29:48.657Z,13.57
2023-02-01T02:32:40.447Z,14.67
2023-02-01T02:35:17.905Z,15.03
2023-02-01T02:37:54.936Z,17.00
2023-02-01T02:40:33.337Z,16.97
2023-02-01T02:43:29.078Z,12.77
2023-02-01T02:46:31.977Z,11.90
2023-02-01T02:49:06.172Z,14.17
2023-02-01T02:51:57.872Z,15.97
2023-02-01T02:54:48.314Z,17.20
2023-02-01T02:57:39.602Z,16.23
2023-02-01T03:00:29.318Z,13.67
2023-02-01T03:03:14.885Z,17.40
2023-02-01T03:05:45.105Z,18.37
2023-02-01T03:08:16.256Z,15.17
2023-02-01T03:10:50.559Z,14.70
2023-02-01T03:13:29.540Z,13.67
2023-02-01T03:16:04.523Z,15.23
2023-02-01T03:18:35.967Z,18.40
2023-02-01T03:21:10.449Z,17.00
2023-02-01T03:23:40.378Z,14.53
2023-02-01T03:26:12.001Z,16.00
2023-02-01T03:28:45.901Z,20.37
2023-02-01T03:31:15.050Z,18.60
2023-02-01T03:33:43.430Z,17.13
2023-02-01T03:36:27.672Z,18.47
2023-02-01T03:39:04.534Z,20.47
2023-02-01T03:41:39.535Z,12.50
2023-02-01T03:44:15.886Z,21.33
2023-02-01T03:46:48.375Z,16.77
2023-02-01T03:49:21.518Z,15.77
2023-02-01T03:51:51.837Z,13.37
2023-02-01T03:54:21.902Z,13.13
2023-02-01T03:56:52.282Z,16.33
2023-02-01T03:59:20.411Z,19.80
2023-02-01T04:01:48.069Z,15.27
2023-02-01T04:04:20.831Z,19.13
2023-02-01T04:06:52.330Z,10.93
2023-02-01T04:09:22.169Z,14.57
2023-02-01T04:11:49.785Z,14.70
2023-02-01T04:14:17.618Z,15.27
2023-02-01T04:16:45.300Z,15.97
2023-02-01T04:19:13.018Z,16.33
2023-02-01T04:21:40.601Z,15.40
2023-02-01T04:24:09.550Z,15.27
2023-02-01T04:26:38.708Z,15.40
2023-02-01T04:29:06.351Z,14.50
2023-02-01T04:31:34.836Z,12.63
2023-02-01T04:34:02.526Z,17.27
2023-02-01T04:36:30.286Z,16.37
2023-02-01T04:38:57.882Z,19.00
2023-02-01T04:41:25.675Z,16.97
2023-02-01T04:43:54.621Z,17.90
2023-02-01T04:46:22.273Z,18.83
2023-02-01T04:48:49.907Z,15.33
2023-02-01T04:51:19.078Z,17.00
2023-02-01T04:53:46.754Z,13.03
2023-02-01T04:56:14.322Z,14.50
2023-02-01T04:58:41.994Z,15.57
2023-02-01T05:01:10.992Z,16.00
2023-02-01T05:03:38.624Z,13.83
2023-02-01T05:06:06.776Z,17.37
2023-02-01T05:08:35.967Z,13.80
2023-02-01T05:11:04.873Z,15.83
2023-02-01T05:13:50.253Z,21.87
2023-02-01T05:16:19.284Z,15.17
2023-02-01T05:18:46.989Z,12.50
2023-02-01T05:21:14.765Z,14.47
2023-02-01T05:23:56.456Z,15.90
2023-02-01T05:26:24.129Z,17.10
2023-02-01T05:28:52.036Z,13.47
2023-02-01T05:31:21.208Z,18.90
2023-02-01T05:33:49.133Z,12.63
2023-02-01T05:36:16.972Z,13.87
2023-02-01T05:38:44.619Z,14.47
2023-02-01T05:41:15.427Z,13.23
2023-02-01T05:43:43.260Z,18.30
2023-02-01T05:46:11.676Z,13.00
2023-02-01T05:48:40.662Z,15.07
2023-02-01T05:51:08.386Z,18.77
2023-02-01T05:53:36.070Z,12.10
2023-02-01T05:56:03.913Z,14.70
2023-02-01T05:58:31.705Z,10.90
2023-02-01T06:01:01.163Z,12.53
2023-02-01T06:03:29.923Z,18.17
2023-02-01T06:05:58.901Z,15.07
2023-02-01T06:08:26.816Z,25.17
2023-02-01T06:10:59.831Z,18.43
2023-02-01T06:13:27.629Z,14.03
2023-02-01T06:15:56.809Z,14.77
2023-02-01T06:18:24.691Z,8.83
2023-02-01T06:20:56.160Z,13.03
2023-02-01T06:23:25.690Z,15.47
2023-02-01T06:25:53.699Z,22.07
2023-02-01T06:28:21.523Z,13.80
2023-02-01T06:30:49.155Z,18.27
2023-02-01T06:33:16.967Z,15.53
2023-02-01T06:35:45.247Z,15.30
2023-02-01T06:38:13.115Z,13.97
2023-02-01T06:40:43.147Z,17.27
2023-02-01T06:43:10.801Z,14.63
2023-02-01T06:45:39.532Z,18.10
2023-02-01T06:48:07.400Z,9.70
2023-02-01T06:50:36.153Z,20.37
2023-02-01T06:53:03.839Z,18.47
2023-02-01T06:55:31.440Z,14.63
2023-02-01T06:58:02.033Z,14.13
2023-02-01T07:00:30.673Z,12.47
2023-02-01T07:02:59.693Z,16.10
2023-02-01T07:05:27.320Z,17.30
2023-02-01T07:07:54.962Z,13.10
2023-02-01T07:10:22.874Z,11.27
2023-02-01T07:12:50.705Z,15.07
2023-02-01T07:15:19.633Z,12.80
2023-02-01T07:17:48.494Z,14.87
2023-02-01T07:20:16.151Z,11.20
2023-02-01T07:22:43.808Z,11.23
2023-02-01T07:25:11.416Z,10.17
2023-02-01T07:27:39.352Z,16.13
2023-02-01T07:30:08.464Z,13.47
2023-02-01T07:32:37.406Z,16.90
2023-02-01T07:35:05.430Z,14.20
2023-02-01T07:37:33.075Z,14.10
2023-02-01T07:40:00.702Z,15.23
2023-02-01T07:42:28.413Z,11.50
2023-02-01T07:44:56.061Z,9.87
2023-02-01T07:47:23.644Z,14.73
2023-02-01T07:49:52.585Z,11.70
2023-02-01T07:52:20.360Z,13.03
2023-02-01T07:54:47.953Z,8.83
2023-02-01T07:57:15.579Z,11.43
2023-02-01T08:00:03.374Z,11.27
2023-02-01T08:02:40.327Z,9.87
2023-02-01T08:05:10.459Z,8.93
2023-02-01T08:07:38.056Z,12.60
2023-02-01T08:10:11.572Z,6.57
2023-02-01T08:12:39.477Z,10.87
2023-02-01T08:15:08.703Z,10.27
2023-02-01T08:17:36.320Z,8.13
2023-02-01T08:20:04.394Z,6.60
2023-02-01T08:22:34.849Z,7.20
2023-02-01T08:25:03.324Z,9.43
2023-02-01T08:27:31.203Z,6.20
2023-02-01T08:29:59.657Z,6.20
2023-02-01T08:32:27.419Z,8.30
2023-02-01T08:34:55.045Z,6.37
2023-02-01T08:37:23.365Z,6.60
2023-02-01T08:39:52.352Z,6.20
2023-02-01T08:42:37.455Z,11.30
2023-02-01T08:45:05.985Z,6.47
2023-02-01T08:47:33.589Z,6.73
2023-02-01T08:50:01.250Z,6.97
2023-02-01T08:52:28.975Z,8.70
2023-02-01T08:54:58.016Z,11.27
2023-02-01T08:57:25.651Z,7.63
2023-02-01T08:59:53.306Z,9.17
2023-02-01T09:02:21.272Z,9.03
2023-02-01T09:04:49.120Z,6.43
2023-02-01T09:07:17.776Z,5.13
2023-02-01T09:09:45.784Z,6.10
2023-02-01T09:12:14.775Z,12.67
2023-02-01T09:14:42.476Z,7.70
2023-02-01T09:17:10.171Z,8.13
2023-02-01T09:19:37.781Z,6.40
2023-02-01T09:22:05.392Z,9.80
2023-02-01T09:24:33.102Z,10.47
2023-02-01T09:27:00.767Z,8.50
2023-02-01T09:29:30.473Z,8.87
2023-02-01T09:32:04.006Z,8.30
2023-02-01T09:34:32.467Z,8.30
2023-02-01T09:37:00.160Z,7.93
2023-02-01T09:39:27.824Z,5.63
2023-02-01T09:42:04.434Z,8.33
2023-02-01T09:44:48.438Z,4.63
2023-02-01T09:47:18.093Z,8.87
2023-02-01T09:49:53.809Z,7.57
2023-02-01T09:52:29.625Z,5.43
2023-02-01T09:55:03.463Z,5.87
2023-02-01T09:57:43.865Z,5.07
2023-02-01T10:00:22.822Z,9.23
2023-02-01T10:02:52.313Z,7.10
2023-02-01T10:05:27.524Z,7.67
2023-02-01T10:08:03.137Z,5.97
2023-02-01T10:10:37.562Z,7.10
2023-02-01T10:13:28.324Z,7.17
2023-02-01T10:16:14.002Z,6.57
2023-02-01T10:18:59.523Z,10.30
2023-02-01T10:21:42.701Z,8.77
2023-02-01T10:24:45.987Z,10.20
2023-02-01T10:27:21.575Z,6.70
2023-02-01T10:29:56.425Z,14.53
2023-02-01T10:32:30.748Z,11.17
2023-02-01T10:35:01.620Z,6.97
2023-02-01T10:37:32.867Z,7.87
2023-02-01T10:40:04.067Z,9.90
2023-02-01T10:42:33.299Z,7.67
2023-02-01T10:45:04.313Z,9.77
2023-02-01T10:47:33.354Z,8.27
2023-02-01T10:50:16.531Z,12.10
2023-02-01T10:52:48.200Z,10.53
2023-02-01T10:55:30.174Z,10.50
2023-02-01T10:57:59.831Z,13.53
2023-02-01T11:00:28.326Z,10.27
2023-02-01T11:02:58.252Z,8.53
2023-02-01T11:05:27.450Z,15.30
2023-02-01T11:07:57.006Z,14.90
2023-02-01T11:10:39.524Z,13.03
2023-02-01T11:13:07.517Z,13.90
2023-02-01T11:15:35.179Z,10.87
2023-02-01T11:18:21.890Z,11.67
2023-02-01T11:20:52.874Z,10.73
2023-02-01T11:23:25.147Z,11.17
2023-02-01T11:25:57.316Z,10.17
2023-02-01T11:28:27.869Z,7.97
2023-02-01T11:30:58.294Z,9.43
2023-02-01T11:33:32.245Z,14.17
2023-02-01T11:36:00.347Z,11.13
2023-02-01T11:38:31.440Z,9.17
2023-02-01T11:41:14.312Z,9.60
2023-02-01T11:43:54.149Z,15.03
2023-02-01T11:46:27.288Z,9.07
2023-02-01T11:48:58.113Z,13.13
2023-02-01T11:51:38.894Z,8.30
2023-02-01T11:54:22.332Z,13.27
2023-02-01T11:57:05.932Z,14.10
2023-02-01T11:59:57.204Z,10.97
2023-02-01T12:02:55.366Z,9.73
2023-02-01T12:05:33.825Z,9.07
2023-02-01T12:08:18.430Z,9.43
2023-02-01T12:11:00.685Z,8.10
2023-02-01T12:13:40.456Z,12.30
2023-02-01T12:16:21.420Z,9.37
2023-02-01T12:19:21.586Z,13.53
2023-02-01T12:22:01.126Z,10.87
2023-02-01T12:24:51.675Z,9.60
2023-02-01T12:27:36.681Z,8.80
2023-02-01T12:30:22.135Z,7.20
2023-02-01T12:33:02.612Z,14.33
2023-02-01T12:35:46.370Z,12.13
2023-02-01T12:38:29.434Z,12.20
2023-02-01T12:41:13.069Z,13.03
2023-02-01T12:43:47.280Z,11.00
2023-02-01T12:46:19.461Z,8.77
2023-02-01T12:48:57.149Z,14.60
2023-02-01T12:51:28.865Z,9.13
2023-02-01T12:54:02.926Z,14.00
2023-02-01T12:56:36.631Z,12.87
2023-02-01T12:59:13.476Z,6.70
2023-02-01T13:01:47.421Z,8.47
2023-02-01T13:04:21.211Z,9.07
2023-02-01T13:06:54.186Z,14.40
2023-02-01T13:09:28.375Z,9.53
2023-02-01T13:12:00.879Z,9.40
2023-02-01T13:14:35.818Z,8.10
2023-02-01T13:17:06.354Z,8.40
2023-02-01T13:19:44.709Z,11.30
2023-02-01T13:22:15.753Z,10.87
2023-02-01T13:24:49.140Z,8.07
2023-02-01T13:27:19.121Z,9.57
2023-02-01T13:29:57.336Z,9.03
2023-02-01T13:32:54.862Z,8.33
2023-02-01T13:36:06.214Z,12.07
2023-02-01T13:39:12.325Z,10.27
2023-02-01T13:41:52.593Z,8.00
2023-02-01T13:44:30.697Z,10.57
2023-02-01T13:47:01.537Z,11.23
2023-02-01T13:49:40.599Z,13.30
2023-02-01T13:52:08.702Z,11.70
2023-02-01T13:54:39.962Z,6.33
2023-02-01T13:57:37.499Z,12.70
2023-02-01T14:00:11.784Z,8.83
2023-02-01T14:02:50.412Z,3.87
2023-02-01T14:05:57.350Z,6.40
2023-02-01T14:08:39.164Z,8.97
2023-02-01T14:11:07.038Z,6.50
2023-02-01T14:13:37.901Z,7.23
2023-02-01T14:16:17.404Z,7.83
2023-02-01T14:19:00.527Z,7.97
2023-02-01T14:21:31.534Z,7.07
2023-02-01T14:24:04.682Z,7.07
2023-02-01T14:26:48.872Z,6.80
2023-02-01T14:29:32.368Z,9.57
2023-02-01T14:32:07.203Z,6.07
2023-02-01T14:34:53.502Z,9.30
2023-02-01T14:37:33.076Z,7.30
2023-02-01T14:40:03.490Z,4.27
2023-02-01T14:42:38.473Z,6.97
2023-02-01T14:45:46.020Z,4.27
2023-02-01T14:48:46.081Z,4.87
2023-02-01T14:51:17.215Z,4.27
2023-02-01T14:53:45.536Z,5.67
2023-02-01T14:56:21.283Z,3.07
2023-02-01T14:58:57.445Z,2.53
2023-02-01T15:01:26.950Z,2.03
2023-02-01T15:04:01.230Z,6.77
2023-02-01T15:06:34.166Z,2.33
2023-02-01T15:09:06.004Z,3.60
2023-02-01T15:11:33.738Z,2.57
2023-02-01T15:14:02.099Z,2.57
2023-02-01T15:16:29.792Z,1.93
2023-02-01T15:19:12.263Z,3.60
2023-02-01T15:21:48.758Z,2.70
2023-02-01T15:24:21.301Z,1.50
2023-02-01T15:26:49.506Z,2.47
2023-02-01T15:29:18.618Z,2.57
2023-02-01T15:31:48.513Z,2.03
2023-02-01T15:34:18.403Z,2.17
2023-02-01T15:37:00.628Z,0.90
2023-02-01T15:39:31.933Z,0.90
2023-02-01T15:42:03.012Z,1.53
2023-02-01T15:44:35.694Z,2.77
2023-02-01T15:47:09.909Z,2.43
2023-02-01T15:49:43.162Z,1.47
2023-02-01T15:52:26.814Z,2.43
2023-02-01T15:54:57.673Z,2.90
2023-02-01T15:57:31.721Z,3.37
2023-02-01T16:00:02.306Z,2.10
2023-02-01T16:02:45.841Z,3.17
2023-02-01T16:05:33.249Z,3.83
2023-02-01T16:08:05.030Z,3.93
2023-02-01T16:10:39.749Z,4.07
2023-02-01T16:13:08.096Z,3.87
2023-02-01T16:15:35.801Z,3.53
2023-02-01T16:18:03.785Z,4.83
2023-02-01T16:20:34.296Z,7.77
2023-02-01T16:23:02.097Z,6.97
2023-02-01T16:25:29.853Z,6.20
2023-02-01T16:27:57.581Z,5.70
2023-02-01T16:30:25.763Z,5.67
2023-02-01T16:32:55.908Z,6.00
2023-02-01T16:35:26.129Z,4.13
2023-02-01T16:37:56.119Z,6.40
2023-02-01T16:40:24.077Z,5.37
2023-02-01T16:42:56.113Z,6.47
2023-02-01T16:45:24.467Z,5.00
2023-02-01T16:47:56.520Z,3.97
2023-02-01T16:50:26.939Z,3.87
2023-02-01T16:52:55.964Z,5.70
2023-02-01T16:55:24.562Z,3.93
2023-02-01T16:57:52.668Z,6.10
2023-02-01T17:00:24.925Z,3.60
2023-02-01T17:02:53.510Z,4.60
2023-02-01T17:05:21.484Z,6.80
2023-02-01T17:07:49.454Z,5.47
2023-02-01T17:10:32.847Z,4.87
2023-02-01T17:13:01.444Z,6.77
2023-02-01T17:15:34.905Z,4.53
2023-02-01T17:18:03.136Z,6.43
2023-02-01T17:20:33.506Z,3.83
2023-02-01T17:23:01.427Z,8.80
2023-02-01T17:25:32.382Z,8.60
2023-02-01T17:28:00.348Z,4.83
2023-02-01T17:30:28.409Z,4.00
2023-02-01T17:32:56.978Z,6.80
2023-02-01T17:35:27.430Z,5.33
2023-02-01T17:37:55.957Z,4.33
2023-02-01T17:40:24.299Z,6.33
2023-02-01T17:42:57.527Z,6.97
2023-02-01T17:45:35.242Z,8.50
2023-02-01T17:48:03.820Z,7.63
2023-02-01T17:50:33.439Z,8.07
2023-02-01T17:53:03.062Z,7.80
2023-02-01T17:55:31.192Z,8.73
2023-02-01T17:58:00.310Z,6.17
2023-02-01T18:00:28.388Z,6.93
2023-02-01T18:02:57.176Z,6.90
2023-02-01T18:05:30.297Z,10.70
2023-02-01T18:07:58.233Z,6.63
2023-02-01T18:10:26.026Z,11.00
2023-02-01T18:12:53.775Z,7.67
2023-02-01T18:15:25.539Z,8.77
2023-02-01T18:17:53.535Z,6.43
2023-02-01T18:20:23.789Z,4.03
2023-02-01T18:22:52.309Z,5.93
2023-02-01T18:25:22.744Z,6.37
2023-02-01T18:27:52.464Z,6.50
2023-02-01T18:30:22.787Z,5.27
2023-02-01T18:32:50.997Z,6.67
2023-02-01T18:35:22.368Z,5.27
2023-02-01T18:37:51.324Z,2.70
2023-02-01T18:40:21.316Z,3.83
2023-02-01T18:42:49.148Z,2.30
2023-02-01T18:45:29.649Z,3.33
2023-02-01T18:47:57.502Z,2.73
2023-02-01T18:50:26.036Z,3.33
2023-02-01T18:52:55.569Z,4.13
2023-02-01T18:55:24.261Z,4.37
2023-02-01T18:57:52.643Z,2.90
2023-02-01T19:00:21.978Z,3.40
2023-02-01T19:02:51.349Z,4.20
2023-02-01T19:05:20.308Z,2.77
2023-02-01T19:07:48.410Z,5.40
2023-02-01T19:10:18.729Z,5.40
2023-02-01T19:12:46.555Z,7.83
2023-02-01T19:15:15.803Z,5.77
2023-02-01T19:17:45.583Z,7.57
2023-02-01T19:20:17.095Z,6.87
2023-02-01T19:22:45.118Z,10.93
2023-02-01T19:25:15.943Z,8.83
2023-02-01T19:27:43.805Z,8.67
2023-02-01T19:30:12.958Z,8.13
2023-02-01T19:32:41.223Z,7.50
2023-02-01T19:35:10.416Z,8.53
2023-02-01T19:37:41.365Z,7.93
2023-02-01T19:40:10.590Z,8.90
2023-02-01T19:42:38.767Z,9.83
2023-02-01T19:45:07.336Z,11.07
2023-02-01T19:47:35.257Z,8.57
2023-02-01T19:50:06.967Z,7.47
2023-02-01T19:52:35.113Z,6.90
2023-02-01T19:55:04.984Z,5.33
2023-02-01T19:57:33.137Z,7.43
2023-02-01T20:00:00.895Z,5.07
2023-02-01T20:02:28.849Z,4.93
2023-02-01T20:04:56.631Z,10.50
2023-02-01T20:07:24.441Z,5.97
2023-02-01T20:09:52.157Z,7.47
2023-02-01T20:12:21.305Z,7.07
2023-02-01T20:14:49.063Z,4.50
2023-02-01T20:17:17.977Z,4.00
2023-02-01T20:19:45.737Z,4.90
2023-02-01T20:22:13.948Z,6.00
2023-02-01T20:24:41.712Z,5.30
2023-02-01T20:27:12.128Z,5.27
2023-02-01T20:29:41.573Z,5.33
2023-02-01T20:32:10.131Z,3.23
2023-02-01T20:34:37.963Z,4.30
2023-02-01T20:37:05.840Z,6.27
2023-02-01T20:39:33.750Z,4.07
2023-02-01T20:42:01.440Z,4.53
2023-02-01T20:44:29.351Z,3.83
2023-02-01T20:46:59.057Z,3.83
2023-02-01T20:49:26.905Z,5.57
2023-02-01T20:51:55.012Z,8.80
2023-02-01T20:54:22.814Z,11.97
2023-02-01T20:56:50.511Z,9.20
2023-02-01T20:59:18.259Z,7.30
2023-02-01T21:01:52.911Z,4.50
2023-02-01T21:04:27.314Z,9.33
2023-02-01T21:06:55.272Z,7.13
2023-02-01T21:09:23.369Z,7.30
2023-02-01T21:11:51.590Z,9.37
2023-02-01T21:14:20.320Z,6.23
2023-02-01T21:16:48.463Z,10.73
2023-02-01T21:19:17.500Z,10.37
2023-02-01T21:21:46.505Z,6.57
2023-02-01T21:24:14.256Z,12.93
2023-02-01T21:26:42.104Z,12.33
2023-02-01T21:29:11.625Z,9.97
2023-02-01T21:31:40.788Z,11.97
2023-02-01T21:34:09.531Z,10.10
2023-02-01T21:36:37.217Z,8.33
2023-02-01T21:39:08.159Z,14.47
2023-02-01T21:41:54.880Z,11.43
2023-02-01T21:44:23.179Z,8.50
2023-02-01T21:46:50.963Z,9.43
2023-02-01T21:49:18.649Z,7.57
2023-02-01T21:51:46.352Z,7.83
2023-02-01T21:54:15.409Z,8.40
2023-02-01T21:56:43.167Z,7.23
2023-02-01T21:59:13.803Z,9.77
2023-02-01T22:01:42.141Z,11.40
2023-02-01T22:04:10.669Z,11.43
2023-02-01T22:06:41.859Z,7.33
2023-02-01T22:09:16.743Z,13.43
2023-02-01T22:11:44.551Z,12.93
2023-02-01T22:14:12.874Z,10.80
2023-02-01T22:16:41.064Z,14.23
2023-02-01T22:19:09.935Z,15.33
2023-02-01T22:21:37.660Z,9.00
2023-02-01T22:24:06.138Z,11.67
2023-02-01T22:26:35.263Z,11.00
2023-02-01T22:29:03.319Z,9.97
2023-02-01T22:31:31.181Z,11.43
2023-02-01T22:33:58.885Z,11.80
2023-02-01T22:36:26.534Z,7.37
2023-02-01T22:38:54.528Z,10.33
2023-02-01T22:41:22.346Z,8.70
2023-02-01T22:43:51.601Z,12.70
2023-02-01T22:46:25.326Z,13.60
2023-02-01T22:48:53.382Z,13.57
2023-02-01T22:51:23.312Z,12.27
2023-02-01T22:53:57.129Z,16.40
2023-02-01T22:56:25.829Z,13.63
2023-02-01T22:58:59.816Z,11.70
2023-02-01T23:01:27.907Z,11.57
2023-02-01T23:03:58.526Z,16.63
2023-02-01T23:06:26.780Z,13.73
2023-02-01T23:08:58.923Z,12.40
2023-02-01T23:11:27.527Z,13.87
2023-02-01T23:13:56.308Z,11.90
2023-02-01T23:16:25.537Z,10.47
2023-02-01T23:18:53.270Z,8.63
2023-02-01T23:21:23.350Z,13.37
2023-02-01T23:23:52.788Z,11.17
2023-02-01T23:26:21.613Z,12.70
2023-02-01T23:28:50.702Z,13.90
2023-02-01T23:31:18.431Z,8.90
2023-02-01T23:33:49.071Z,10.57
2023-02-01T23:36:18.015Z,16.53
2023-02-01T23:38:46.389Z,15.33
2023-02-01T23:41:15.734Z,14.93
2023-02-01T23:43:58.610Z,12.10
2023-02-01T23:46:27.994Z,12.83
2023-02-01T23:48:57.387Z,12.80
2023-02-01T23:51:26.108Z,13.73
2023-02-01T23:53:54.027Z,10.67
2023-02-01T23:56:24.735Z,14.90
2023-02-01T23:58:53.368Z,15.23
